createdAt,value
2018-10-11T00:05:04.591Z,15.30
2018-10-11T00:10:04.138Z,15.20
2018-10-11T00:15:01.826Z,15.20
2018-10-11T00:17:30.811Z,15.20
2018-10-11T00:24:58.441Z,15.10
2018-10-11T00:27:27.627Z,15.10
2018-10-11T00:34:53.492Z,15.10
2018-10-11T00:37:22.471Z,15.10
2018-10-11T00:44:49.302Z,15.00
2018-10-11T00:52:15.326Z,14.90
2018-10-11T00:57:15.522Z,14.90
2018-10-11T01:22:05.963Z,14.50
2018-10-11T01:34:28.751Z,14.40
2018-10-11T01:36:57.768Z,14.40
2018-10-11T01:44:24.802Z,14.40
2018-10-11T01:49:23.120Z,14.50
2018-10-11T01:59:19.189Z,14.50
2018-10-11T02:01:48.322Z,14.40
2018-10-11T02:06:45.837Z,14.40
2018-10-11T02:11:43.333Z,14.30
2018-10-11T02:14:12.583Z,14.20
2018-10-11T02:29:03.899Z,14.10
2018-10-11T02:31:32.903Z,14.10
2018-10-11T02:43:59.385Z,14.10
2018-10-11T02:51:25.509Z,14.10
2018-10-11T02:53:54.632Z,14.00
2018-10-11T02:56:23.995Z,14.00
2018-10-11T03:03:52.629Z,14.00
2018-10-11T03:06:21.589Z,14.00
2018-10-11T03:08:50.679Z,13.90
2018-10-11T03:11:19.705Z,13.90
2018-10-11T03:13:48.676Z,13.90
2018-10-11T03:16:17.720Z,13.90
2018-10-11T03:21:15.286Z,13.90
2018-10-11T03:28:41.156Z,13.90
2018-10-11T03:33:40.244Z,13.80
2018-10-11T03:38:37.670Z,13.70
2018-10-11T03:46:03.695Z,13.70
2018-10-11T03:48:32.751Z,13.70
2018-10-11T04:01:00.685Z,13.70
2018-10-11T04:05:58.171Z,13.60
2018-10-11T04:08:28.028Z,13.60
2018-10-11T04:10:58.382Z,13.60
2018-10-11T04:15:55.779Z,13.60
2018-10-11T04:18:24.791Z,13.60
2018-10-11T04:36:11.810Z,13.40
2018-10-11T04:38:40.743Z,13.40
2018-10-11T04:41:09.760Z,13.30
2018-10-11T04:43:38.749Z,13.30
2018-10-11T04:46:07.826Z,13.30
2018-10-11T04:48:36.796Z,13.30
2018-10-11T04:58:32.267Z,13.30
2018-10-11T05:03:34.722Z,13.30
2018-10-11T05:06:04.554Z,13.20
2018-10-11T05:08:33.702Z,13.20
2018-10-11T05:11:07.113Z,13.20
2018-10-11T05:16:04.592Z,13.00
2018-10-11T05:18:33.575Z,13.00
2018-10-11T05:23:32.702Z,13.00
2018-10-11T05:28:30.272Z,13.00
2018-10-11T05:30:59.312Z,13.00
2018-10-11T05:35:56.930Z,12.90
2018-10-11T05:40:58.305Z,12.90
2018-10-11T05:58:22.700Z,13.00
2018-10-11T06:00:51.939Z,12.90
2018-10-11T06:03:21.047Z,12.90
2018-10-11T06:05:50.115Z,12.80
2018-10-11T06:08:19.177Z,12.80
2018-10-11T06:10:48.273Z,12.90
2018-10-11T06:20:42.966Z,12.90
2018-10-11T06:23:11.977Z,12.90
2018-10-11T06:28:09.545Z,12.70
2018-10-11T06:35:36.999Z,13.00
2018-10-11T06:40:35.136Z,13.00
2018-10-11T06:48:02.311Z,13.20
2018-10-11T06:53:00.353Z,13.10
2018-10-11T07:07:51.918Z,13.40
2018-10-11T07:15:19.978Z,13.60
2018-10-11T07:17:49.100Z,13.70
2018-10-11T07:25:15.471Z,13.80
2018-10-11T07:30:14.407Z,14.00
2018-10-11T07:37:41.271Z,14.10
2018-10-11T07:47:36.060Z,14.50
2018-10-11T07:52:34.174Z,14.70
2018-10-11T07:55:03.229Z,14.70
2018-10-11T08:00:00.759Z,14.90
2018-10-11T08:04:58.401Z,15.10
2018-10-11T08:27:15.796Z,16.10
2018-10-11T08:32:13.257Z,16.30
2018-10-11T08:39:39.299Z,16.70
2018-10-11T08:44:36.798Z,16.90
2018-10-11T08:54:38.359Z,17.30
2018-10-11T08:57:07.587Z,17.40
2018-10-11T08:59:36.660Z,17.50
2018-10-11T09:04:34.122Z,17.60
2018-10-11T09:07:07.509Z,17.80
2018-10-11T09:12:05.046Z,17.90
2018-10-11T09:14:34.074Z,18.10
2018-10-11T09:19:33.396Z,18.20
2018-10-11T09:31:57.354Z,18.50
2018-10-11T09:34:26.458Z,18.60
2018-10-11T09:39:25.602Z,18.60
2018-10-11T09:41:54.691Z,18.70
2018-10-11T09:44:23.759Z,18.90
2018-10-11T09:51:51.985Z,19.10
2018-10-11T09:54:21.115Z,19.10
2018-10-11T10:01:47.079Z,19.20
2018-10-11T10:04:16.506Z,19.20
2018-10-11T10:06:45.627Z,19.30
2018-10-11T10:09:14.660Z,19.50
2018-10-11T10:11:43.661Z,19.50
2018-10-11T10:14:12.780Z,19.70
2018-10-11T10:16:48.552Z,19.60
2018-10-11T10:24:15.320Z,19.70
2018-10-11T10:26:44.521Z,19.70
2018-10-11T10:29:13.450Z,19.70
2018-10-11T10:31:42.492Z,19.90
2018-10-11T10:34:11.535Z,20.00
2018-10-11T10:41:37.691Z,20.30
2018-10-11T10:44:06.715Z,20.40
2018-10-11T10:54:09.407Z,20.60
2018-10-11T11:06:33.127Z,20.90
2018-10-11T11:09:07.099Z,21.10
2018-10-11T11:11:36.167Z,21.10
2018-10-11T11:16:33.676Z,21.20
2018-10-11T11:19:03.024Z,21.10
2018-10-11T11:21:32.054Z,21.10
2018-10-11T11:24:01.205Z,21.20
2018-10-11T11:31:29.003Z,21.30
2018-10-11T11:33:58.440Z,21.60
2018-10-11T11:36:27.446Z,21.70
2018-10-11T11:41:25.019Z,21.70
2018-10-11T11:48:51.969Z,22.60
2018-10-11T11:51:21.009Z,23.10
2018-10-11T11:53:50.099Z,23.50
2018-10-11T11:56:19.148Z,23.90
2018-10-11T11:58:48.342Z,24.60
2018-10-11T12:01:20.271Z,25.10
2018-10-11T12:03:49.317Z,25.70
2018-10-11T12:06:18.440Z,26.00
2018-10-11T12:11:15.948Z,26.00
2018-10-11T12:18:42.268Z,25.80
2018-10-11T12:23:40.097Z,25.90
2018-10-11T12:26:09.208Z,25.70
2018-10-11T12:31:07.191Z,25.90
2018-10-11T12:36:04.811Z,26.60
2018-10-11T12:38:33.816Z,26.90
2018-10-11T12:41:03.025Z,27.00
2018-10-11T12:58:24.052Z,28.30
2018-10-11T13:15:44.046Z,28.60
2018-10-11T13:18:13.890Z,28.60
2018-10-11T13:28:12.317Z,29.20
2018-10-11T13:38:14.183Z,29.30
2018-10-11T13:40:44.287Z,29.10
2018-10-11T13:45:43.701Z,28.90
2018-10-11T13:50:43.145Z,28.90
2018-10-11T14:03:11.047Z,31.10
2018-10-11T14:08:10.617Z,30.50
2018-10-11T14:10:40.664Z,29.70
2018-10-11T14:15:40.162Z,28.70
2018-10-11T14:18:11.908Z,28.40
2018-10-11T14:25:39.111Z,27.70
2018-10-11T14:30:39.778Z,27.50
2018-10-11T14:35:39.201Z,27.70
2018-10-11T14:40:39.503Z,27.40
2018-10-11T14:43:10.153Z,27.10
2018-10-11T14:48:09.726Z,26.60
2018-10-11T14:50:41.301Z,26.60
2018-10-11T14:53:11.176Z,26.50
2018-10-11T14:58:10.631Z,25.90
2018-10-11T15:03:10.366Z,24.80
2018-10-11T15:05:40.370Z,24.50
2018-10-11T15:15:38.713Z,23.30
2018-10-11T15:18:08.817Z,23.10
2018-10-11T15:20:38.940Z,22.90
2018-10-11T15:23:08.972Z,22.80
2018-10-11T15:25:39.175Z,22.60
2018-10-11T15:35:38.025Z,22.10
2018-10-11T15:38:11.071Z,22.10
2018-10-11T15:53:09.618Z,21.50
2018-10-11T15:55:39.634Z,21.40
2018-10-11T15:58:09.669Z,21.30
2018-10-11T16:00:39.644Z,21.20
2018-10-11T16:03:09.645Z,21.00
2018-10-11T16:08:09.341Z,20.90
2018-10-11T16:13:08.995Z,20.70
2018-10-11T16:15:39.085Z,20.50
2018-10-11T16:20:38.667Z,20.40
2018-10-11T16:23:10.294Z,20.30
2018-10-11T16:25:40.868Z,20.10
2018-10-11T16:28:11.725Z,20.10
2018-10-11T16:35:43.979Z,19.80
2018-10-11T16:38:14.073Z,17.40
2018-10-11T16:43:13.568Z,19.60
2018-10-11T16:45:43.609Z,19.50
2018-10-11T16:48:13.608Z,19.40
2018-10-11T16:50:43.667Z,19.40
2018-10-11T16:55:43.686Z,19.30
2018-10-11T17:05:53.687Z,19.00
2018-10-11T17:13:22.656Z,18.80
2018-10-11T17:15:52.689Z,18.70
2018-10-11T17:20:52.167Z,18.60
2018-10-11T17:40:49.836Z,18.20
2018-10-11T17:48:20.654Z,18.00
2018-10-11T17:50:50.756Z,18.00
2018-10-11T17:53:20.806Z,18.00
2018-10-11T18:00:54.744Z,17.90
2018-10-11T18:03:24.784Z,17.80
2018-10-11T18:08:25.591Z,17.80
2018-10-11T18:10:55.607Z,17.80
2018-10-11T18:15:55.095Z,17.60
2018-10-11T18:18:25.190Z,17.70
2018-10-11T18:20:55.220Z,17.70
2018-10-11T18:23:25.196Z,17.60
2018-10-11T18:28:25.275Z,17.50
2018-10-11T18:38:42.944Z,17.50
2018-10-11T18:41:12.940Z,17.50
2018-10-11T18:46:12.629Z,17.40
2018-10-11T18:48:43.628Z,17.40
2018-10-11T18:51:13.626Z,17.50
2018-10-11T18:53:43.604Z,17.50
2018-10-11T18:56:13.627Z,17.50
2018-10-11T18:58:43.585Z,17.50
2018-10-11T19:01:19.999Z,17.50
2018-10-11T19:03:50.207Z,17.60
2018-10-11T19:08:49.913Z,17.60
2018-10-11T19:11:21.005Z,17.60
2018-10-11T19:13:51.012Z,17.70
2018-10-11T19:18:50.430Z,17.70
2018-10-11T19:21:20.667Z,17.70
2018-10-11T19:23:50.674Z,17.70
2018-10-11T19:26:24.306Z,17.70
2018-10-11T19:31:23.895Z,17.70
2018-10-11T19:41:25.726Z,17.60
2018-10-11T19:51:26.010Z,17.70
2018-10-11T19:53:56.062Z,17.70
2018-10-11T19:56:26.097Z,17.70
2018-10-11T20:03:59.048Z,17.60
2018-10-11T20:11:36.140Z,17.70
2018-10-11T20:16:35.587Z,17.60
2018-10-11T20:19:05.743Z,17.60
2018-10-11T20:21:35.735Z,17.60
2018-10-11T20:34:18.721Z,17.50
2018-10-11T20:36:48.835Z,17.40
2018-10-11T20:41:50.416Z,17.40
2018-10-11T20:56:51.949Z,17.20
2018-10-11T21:01:51.701Z,17.20
2018-10-11T21:06:51.122Z,17.10
2018-10-11T21:11:52.538Z,17.00
2018-10-11T21:14:22.500Z,17.00
2018-10-11T21:19:23.481Z,16.80
2018-10-11T21:26:52.452Z,16.70
2018-10-11T21:31:51.880Z,16.60
2018-10-11T21:54:19.179Z,16.10
2018-10-11T21:59:18.717Z,16.10
2018-10-11T22:01:48.669Z,16.10
2018-10-11T22:11:48.884Z,15.90
2018-10-11T22:14:18.840Z,15.90
2018-10-11T22:21:49.745Z,15.70
2018-10-11T22:29:18.680Z,15.80
2018-10-11T22:31:48.709Z,15.70
2018-10-11T22:34:18.695Z,15.70
2018-10-11T22:41:48.510Z,15.60
2018-10-11T22:49:17.362Z,15.60
2018-10-11T22:51:48.242Z,15.60
2018-10-11T22:56:47.667Z,15.60
2018-10-11T22:59:17.661Z,15.60
2018-10-11T23:01:47.785Z,15.50
2018-10-11T23:04:17.769Z,15.40
2018-10-11T23:09:18.608Z,15.40
2018-10-11T23:11:48.569Z,15.40
2018-10-11T23:14:18.543Z,15.40
2018-10-11T23:19:17.982Z,15.30
2018-10-11T23:21:48.975Z,15.30
2018-10-11T23:29:17.997Z,15.10
2018-10-11T23:34:17.452Z,15.10
2018-10-11T23:39:16.825Z,15.10
